Time;durP1;ratioP1;P1;durP2;ratioP2;P2;SDS_P1;SDS_P2;PMS_P1;PMS_P2;Temp;Humidity;BMP_temperature;BMP_pressure;BME280_temperature;BME280_humidity;BME280_pressure;Samples;Min_cycle;Max_cycle;Signal;HPM_P1;HPM_P2
2022/05/08 00:01:22;;;;;;;12.20;5.70;;;;;;;20.63;37.40;100654.53;5113414;28;20083;-70
2022/05/08 00:03:49;;;;;;;11.07;6.85;;;;;;;20.71;37.96;100682.00;5111728;28;20131;-67
2022/05/08 00:06:16;;;;;;;10.82;6.15;;;;;;;20.65;37.54;100668.38;5126906;27;20047;-69
2022/05/08 00:08:43;;;;;;;8.98;5.63;;;;;;;20.52;37.29;100654.13;5134168;27;20154;-68
2022/05/08 00:11:09;;;;;;;9.02;5.90;;;;;;;20.42;36.77;100640.31;5114760;27;20134;-67
2022/05/08 00:13:36;;;;;;;9.85;6.40;;;;;;;20.62;37.06;100669.09;5113485;28;20078;-69
2022/05/08 00:16:04;;;;;;;8.77;5.70;;;;;;;20.46;37.22;100644.13;5113147;28;20142;-68
2022/05/08 00:18:30;;;;;;;11.35;5.60;;;;;;;20.47;37.18;100657.13;5112937;28;20057;-66
2022/05/08 00:20:57;;;;;;;9.20;5.93;;;;;;;20.44;36.99;100648.47;5113078;28;20127;-68
2022/05/08 00:23:24;;;;;;;10.65;5.43;;;;;;;20.40;37.05;100641.84;5113623;28;20083;-69
2022/05/08 00:25:51;;;;;;;9.95;6.05;;;;;;;20.29;37.18;100641.41;5112044;28;20131;-68
2022/05/08 00:28:19;;;;;;;10.30;5.80;;;;;;;20.18;37.24;100626.81;5112265;28;20075;-68
2022/05/08 00:30:46;;;;;;;9.90;5.97;;;;;;;20.18;37.39;100629.66;5113298;28;20473;-68
2022/05/08 00:33:13;;;;;;;8.05;5.97;;;;;;;20.41;37.12;100644.34;5112640;28;20143;-69
2022/05/08 00:35:40;;;;;;;10.05;5.70;;;;;;;20.35;37.33;100632.38;5103963;28;20130;-68
2022/05/08 00:38:08;;;;;;;9.77;6.07;;;;;;;20.34;37.32;100632.69;5109253;28;20075;-69
2022/05/08 00:40:35;;;;;;;9.38;5.65;;;;;;;20.18;37.70;100628.81;5113519;28;20047;-68
2022/05/08 00:43:40;;;;;;;8.73;5.63;;;;;;;20.15;37.93;100635.19;5145873;27;20047;-67
2022/05/08 00:46:12;;;;;;;9.82;5.65;;;;;;;20.16;37.96;100631.16;5112473;28;20071;-68
2022/05/08 00:48:41;;;;;;;13.45;6.30;;;;;;;20.12;38.10;100631.84;5112440;28;20071;-67
2022/05/08 00:51:10;;;;;;;11.10;6.72;;;;;;;19.89;38.08;100602.97;5112923;28;20097;-68
2022/05/08 00:53:42;;;;;;;8.68;6.13;;;;;;;20.00;38.26;100623.28;5110783;28;20130;-66
2022/05/08 00:56:11;;;;;;;11.60;5.97;;;;;;;19.99;38.17;100620.75;5101906;28;20067;-68
2022/05/08 00:58:40;;;;;;;10.83;6.37;;;;;;;19.92;38.42;100624.13;5110156;28;20583;-68
2022/05/08 01:01:11;;;;;;;14.85;5.90;;;;;;;19.85;38.87;100621.81;5110799;28;20051;-67
2022/05/08 01:03:39;;;;;;;10.23;7.05;;;;;;;19.84;38.47;100625.03;5112102;28;20048;-68
2022/05/08 01:06:11;;;;;;;11.05;6.18;;;;;;;19.80;39.11;100618.38;5112999;28;20078;-68
2022/05/08 01:08:40;;;;;;;9.65;5.55;;;;;;;19.68;39.54;100607.75;5111441;27;20074;-67
2022/05/08 01:11:08;;;;;;;13.63;5.85;;;;;;;19.64;39.68;100610.44;5114896;28;20036;-68
2022/05/08 01:13:36;;;;;;;12.13;5.72;;;;;;;19.61;39.71;100598.94;5113759;28;20130;-68
2022/05/08 01:16:07;;;;;;;8.68;6.20;;;;;;;19.55;39.95;100598.28;5115474;27;20058;-69
2022/05/08 01:18:41;;;;;;;12.15;6.20;;;;;;;19.46;40.35;100599.50;5097898;27;20048;-70
2022/05/08 01:21:10;;;;;;;15.48;6.72;;;;;;;19.38;40.53;100596.38;5111253;27;20085;-68
2022/05/08 01:23:37;;;;;;;13.00;6.77;;;;;;;19.40;40.45;100598.84;5113953;27;20054;-68
2022/05/08 01:26:05;;;;;;;10.32;5.65;;;;;;;19.62;40.24;100612.78;5114167;27;21085;-67
2022/05/08 01:28:32;;;;;;;10.30;6.22;;;;;;;19.37;40.10;100585.38;5113776;28;20589;-67
2022/05/08 01:30:59;;;;;;;8.15;5.35;;;;;;;19.46;40.63;100608.00;5118588;27;20043;-67
2022/05/08 01:33:27;;;;;;;10.57;6.35;;;;;;;19.20;40.66;100571.28;5115173;28;20093;-67
2022/05/08 01:35:56;;;;;;;10.85;6.88;;;;;;;19.27;41.04;100594.22;5115784;27;20134;-68
2022/05/08 01:38:24;;;;;;;11.48;6.30;;;;;;;19.14;41.33;100579.13;5112731;28;20074;-67
2022/05/08 01:40:51;;;;;;;10.77;7.18;;;;;;;19.24;40.76;100600.56;5110488;27;20043;-67
2022/05/08 01:43:18;;;;;;;9.77;6.28;;;;;;;19.55;40.51;100620.94;5113360;28;20054;-68
2022/05/08 01:45:45;;;;;;;9.02;6.57;;;;;;;19.61;40.23;100613.91;5112399;28;20120;-68
2022/05/08 01:48:25;;;;;;;12.82;6.78;;;;;;;19.60;40.54;100614.28;5114796;28;20039;-68
2022/05/08 01:50:54;;;;;;;11.80;6.70;;;;;;;19.59;41.02;100599.28;5108354;27;20559;-69
2022/05/08 01:53:25;;;;;;;12.83;7.40;;;;;;;19.50;41.20;100601.31;5114536;27;20071;-69
2022/05/08 01:55:54;;;;;;;14.23;6.57;;;;;;;19.44;41.56;100597.00;5112360;27;20075;-69
2022/05/08 01:58:23;;;;;;;17.35;8.35;;;;;;;19.41;41.31;100597.69;5112840;28;20131;-70
2022/05/08 02:00:51;;;;;;;11.70;6.80;;;;;;;19.02;41.62;100531.72;5112969;27;20039;-70
2022/05/08 02:03:19;;;;;;;12.07;7.28;;;;;;;19.17;41.88;100555.78;5114445;28;20051;-70
2022/05/08 02:05:47;;;;;;;11.27;7.25;;;;;;;19.45;41.57;100604.31;5109996;27;20126;-70
2022/05/08 02:08:14;;;;;;;12.05;7.13;;;;;;;19.36;41.88;100598.69;5111547;27;20047;-69
2022/05/08 02:10:41;;;;;;;13.65;8.07;;;;;;;19.39;42.31;100603.69;5111189;28;20071;-67
2022/05/08 02:13:09;;;;;;;11.10;7.20;;;;;;;19.27;41.96;100595.06;5114728;27;20075;-67
2022/05/08 02:15:37;;;;;;;13.50;6.80;;;;;;;19.29;41.70;100597.56;5110419;28;20229;-69
2022/05/08 02:18:06;;;;;;;10.73;6.63;;;;;;;19.23;41.69;100598.91;5112143;28;20126;-68
2022/05/08 02:20:34;;;;;;;13.33;7.73;;;;;;;19.14;42.10;100596.94;5099161;27;20135;-68
2022/05/08 02:23:01;;;;;;;13.35;8.77;;;;;;;19.15;42.01;100603.44;5113646;27;20331;-68
2022/05/08 02:25:30;;;;;;;19.95;10.55;;;;;;;19.04;41.70;100582.31;5107838;28;20146;-67
2022/05/08 02:27:57;;;;;;;14.13;7.30;;;;;;;18.91;41.86;100581.34;5112572;28;20071;-69
2022/05/08 02:30:25;;;;;;;12.52;7.32;;;;;;;19.03;42.07;100601.28;5109956;27;20551;-68
2022/05/08 02:32:56;;;;;;;14.40;7.75;;;;;;;19.05;41.89;100600.97;5114664;27;20078;-69
2022/05/08 02:35:23;;;;;;;14.77;7.30;;;;;;;19.08;41.57;100608.78;5113819;27;20082;-69
2022/05/08 02:37:52;;;;;;;18.27;7.25;;;;;;;18.97;41.49;100585.66;5111002;28;20067;-69
2022/05/08 02:40:22;;;;;;;12.43;7.90;;;;;;;19.14;41.76;100602.63;5104189;28;20130;-69
2022/05/08 02:42:50;;;;;;;16.88;10.13;;;;;;;19.12;41.86;100604.13;5114526;27;20047;-67
2022/05/08 02:45:16;;;;;;;16.85;8.35;;;;;;;19.05;41.40;100596.13;5112923;28;20206;-68
2022/05/08 02:47:43;;;;;;;15.93;7.88;;;;;;;19.09;41.66;100605.59;5114212;28;20073;-68
2022/05/08 02:50:11;;;;;;;15.10;8.27;;;;;;;19.16;41.60;100605.09;5107226;28;20074;-69
2022/05/08 02:52:42;;;;;;;10.88;7.45;;;;;;;18.66;41.92;100541.41;5111109;28;20039;-68
2022/05/08 03:00:43;;;;;;;12.40;6.65;;;;;;;18.50;43.07;100594.03;5112202;27;20127;-69
2022/05/08 03:03:14;;;;;;;8.82;7.20;;;;;;;18.37;43.36;100578.06;5112602;28;20079;-68
2022/05/08 03:05:43;;;;;;;11.15;6.35;;;;;;;18.38;43.51;100585.34;5120652;27;20082;-69
2022/05/08 03:08:11;;;;;;;13.13;6.70;;;;;;;18.48;43.32;100585.03;5112296;27;20133;-68
2022/05/08 03:13:23;;;;;;;12.52;7.35;;;;;;;18.26;43.01;100528.66;5099586;27;20043;-67
2022/05/08 03:15:50;;;;;;;13.55;7.22;;;;;;;18.58;43.12;100587.50;5104529;28;20086;-68
2022/05/08 03:18:18;;;;;;;10.57;7.22;;;;;;;18.47;43.45;100584.19;5103063;28;20076;-68
2022/05/08 03:20:45;;;;;;;12.25;6.82;;;;;;;18.26;43.83;100568.25;5112563;27;20079;-67
2022/05/08 03:23:12;;;;;;;11.52;6.50;;;;;;;18.19;43.88;100563.91;5114452;27;20086;-68
2022/05/08 03:25:38;;;;;;;13.35;6.82;;;;;;;18.20;44.25;100570.41;5111462;28;20081;-68
2022/05/08 03:28:05;;;;;;;15.65;7.15;;;;;;;18.15;44.16;100560.09;5099315;28;20090;-68
2022/05/08 03:30:32;;;;;;;15.52;8.18;;;;;;;18.18;44.05;100567.88;5111997;27;20078;-69
2022/05/08 03:32:59;;;;;;;16.27;7.07;;;;;;;18.26;44.14;100571.06;5112377;28;20048;-68
2022/05/08 03:35:26;;;;;;;11.65;7.32;;;;;;;18.26;43.92;100576.72;5111764;27;20122;-68
2022/05/08 03:37:53;;;;;;;12.13;6.88;;;;;;;17.95;44.33;100526.84;5108016;27;20572;-67
2022/05/08 03:40:20;;;;;;;11.02;7.15;;;;;;;18.23;44.54;100579.03;5112298;28;20078;-68
2022/05/08 03:42:47;;;;;;;10.25;6.90;;;;;;;18.18;44.33;100565.06;5112878;28;20130;-68
2022/05/08 03:45:14;;;;;;;13.30;8.10;;;;;;;18.26;43.96;100577.56;5110243;27;20086;-67
2022/05/08 03:47:40;;;;;;;10.40;6.32;;;;;;;18.43;43.63;100588.03;5111383;28;20483;-68
2022/05/08 03:50:08;;;;;;;9.27;6.93;;;;;;;18.32;42.79;100530.97;5110480;28;20131;-68
2022/05/08 03:52:35;;;;;;;12.85;7.90;;;;;;;18.67;43.11;100570.56;5113001;27;20126;-67
2022/05/08 03:55:03;;;;;;;11.02;6.60;;;;;;;18.80;42.87;100568.72;5110980;28;20135;-68
2022/05/08 03:57:29;;;;;;;14.07;6.63;;;;;;;18.90;42.93;100585.34;5110652;27;20060;-68
2022/05/08 03:59:56;;;;;;;9.07;6.90;;;;;;;18.89;43.10;100583.69;5111380;28;20075;-69
2022/05/08 04:02:24;;;;;;;12.65;7.18;;;;;;;18.96;42.57;100594.50;5109762;28;20047;-67
2022/05/08 04:04:51;;;;;;;9.90;6.70;;;;;;;18.93;42.59;100590.31;5110024;28;20043;-68
2022/05/08 04:07:18;;;;;;;17.70;7.45;;;;;;;18.95;42.34;100590.84;5112054;28;20075;-67
2022/05/08 04:09:44;;;;;;;10.98;6.93;;;;;;;18.86;42.16;100573.84;5112164;28;20085;-68
2022/05/08 04:12:11;;;;;;;11.65;7.65;;;;;;;18.99;42.62;100594.66;5112660;28;20127;-68
2022/05/08 04:14:38;;;;;;;11.90;6.53;;;;;;;18.87;42.28;100569.03;5110740;28;20079;-68
2022/05/08 04:17:05;;;;;;;11.68;7.47;;;;;;;18.73;42.77;100559.91;5108046;28;20126;-68
2022/05/08 04:19:32;;;;;;;13.48;7.13;;;;;;;18.60;43.11;100561.75;5112540;28;20087;-68
2022/05/08 04:24:44;;;;;;;13.95;6.95;;;;;;;18.40;43.76;100583.03;5108841;28;20062;-66
2022/05/08 04:27:11;;;;;;;13.10;6.93;;;;;;;18.41;43.47;100584.69;5108567;28;20135;-67
2022/05/08 04:29:38;;;;;;;9.77;6.40;;;;;;;18.32;43.69;100575.38;5111809;28;20077;-68
2022/05/08 04:32:05;;;;;;;12.88;6.57;;;;;;;18.15;43.80;100556.41;5106728;28;20171;-67
2022/05/08 04:34:32;;;;;;;12.25;6.88;;;;;;;18.05;44.01;100546.28;5109778;28;20079;-68
2022/05/08 04:36:59;;;;;;;15.05;7.10;;;;;;;18.13;44.63;100570.88;5110389;28;20084;-67
2022/05/08 04:39:26;;;;;;;11.77;7.10;;;;;;;18.06;44.56;100558.41;5110889;28;20126;-67
2022/05/08 04:41:52;;;;;;;14.05;7.00;;;;;;;18.05;44.94;100566.06;5111289;28;20131;-67
2022/05/08 04:44:19;;;;;;;11.57;6.75;;;;;;;17.92;44.90;100552.91;5114993;28;20075;-67
2022/05/08 04:46:46;;;;;;;10.32;6.45;;;;;;;17.94;45.16;100574.00;5116219;28;20090;-68
2022/05/08 04:49:13;;;;;;;11.40;6.47;;;;;;;17.77;45.35;100549.38;5115929;28;20814;-67
2022/05/08 04:51:40;;;;;;;15.95;8.07;;;;;;;17.81;45.02;100557.19;5115643;28;20079;-67
2022/05/08 04:54:07;;;;;;;12.25;7.20;;;;;;;17.93;44.76;100563.06;5117492;27;20130;-67
2022/05/08 04:56:34;;;;;;;12.30;6.97;;;;;;;18.00;44.95;100574.69;5114695;28;20489;-66
2022/05/08 04:59:01;;;;;;;11.55;6.97;;;;;;;17.93;45.32;100568.69;5107891;28;20040;-66
2022/05/08 05:01:28;;;;;;;11.93;6.97;;;;;;;17.88;45.42;100561.22;5116133;28;20555;-66
2022/05/08 05:03:55;;;;;;;12.00;7.80;;;;;;;17.86;45.14;100554.22;5116809;28;20512;-67
2022/05/08 05:06:24;;;;;;;14.07;7.28;;;;;;;18.05;44.79;100574.53;5115047;28;20047;-67
2022/05/08 05:08:52;;;;;;;12.98;7.90;;;;;;;18.22;44.31;100574.56;5116733;28;20047;-67
2022/05/08 05:11:19;;;;;;;12.07;8.27;;;;;;;18.28;44.50;100578.03;5114279;27;20134;-70
2022/05/08 05:13:45;;;;;;;12.13;7.90;;;;;;;18.32;44.55;100587.50;5095896;28;20048;-70
2022/05/08 05:16:12;;;;;;;14.13;8.50;;;;;;;17.97;44.79;100539.44;5104302;28;20043;-69
2022/05/08 05:18:39;;;;;;;15.18;8.27;;;;;;;18.26;45.00;100588.88;5096542;28;20139;-69
2022/05/08 05:21:06;;;;;;;10.55;7.22;;;;;;;18.10;45.11;100579.19;5108407;28;20090;-70
2022/05/08 05:23:35;;;;;;;15.23;8.43;;;;;;;17.98;45.30;100577.00;5115326;27;20729;-67
2022/05/08 05:26:03;;;;;;;14.30;7.47;;;;;;;17.96;45.31;100580.16;5115184;28;20047;-69
2022/05/08 05:28:31;;;;;;;12.07;8.05;;;;;;;17.71;45.07;100536.56;5116124;27;20051;-69
2022/05/08 05:30:58;;;;;;;11.20;7.57;;;;;;;18.13;45.45;100601.97;5113581;28;20039;-68
2022/05/08 05:33:25;;;;;;;11.38;7.65;;;;;;;18.14;45.42;100612.09;5115817;28;20467;-68
2022/05/08 05:35:52;;;;;;;12.60;7.25;;;;;;;18.06;45.35;100598.81;5116848;27;20213;-68
2022/05/08 05:38:19;;;;;;;13.43;7.88;;;;;;;18.13;45.24;100616.09;5116660;28;20511;-68
2022/05/08 05:40:46;;;;;;;10.18;6.95;;;;;;;18.07;45.05;100591.97;5112526;28;20510;-68
2022/05/08 05:43:13;;;;;;;13.20;7.38;;;;;;;17.97;45.39;100592.28;5123046;27;20110;-70
2022/05/08 05:45:40;;;;;;;10.43;6.50;;;;;;;17.88;45.30;100571.66;5110899;27;20146;-68
2022/05/08 05:48:07;;;;;;;12.05;8.07;;;;;;;18.11;45.46;100597.81;5150644;27;20048;-69
2022/05/08 05:50:34;;;;;;;9.80;6.82;;;;;;;18.26;44.83;100621.94;5116024;28;20146;-69
2022/05/08 05:53:01;;;;;;;12.93;7.60;;;;;;;18.11;45.20;100598.63;5116378;28;20075;-70
2022/05/08 05:55:28;;;;;;;14.98;6.35;;;;;;;18.27;44.89;100624.44;5104153;28;20078;-72
2022/05/08 05:57:55;;;;;;;13.75;6.43;;;;;;;18.29;44.76;100624.09;5115669;28;20173;-70
2022/05/08 06:00:22;;;;;;;10.88;6.82;;;;;;;18.40;45.04;100633.94;5113066;28;20047;-70
2022/05/08 06:02:49;;;;;;;11.75;7.25;;;;;;;18.23;45.67;100623.44;5125451;27;20058;-71
2022/05/08 06:05:16;;;;;;;11.65;6.38;;;;;;;18.27;46.16;100634.91;5122910;27;20086;-71
2022/05/08 06:07:43;;;;;;;13.98;6.78;;;;;;;18.33;46.50;100642.91;5115109;28;20043;-70
2022/05/08 06:10:11;;;;;;;12.07;6.30;;;;;;;18.37;46.45;100649.56;5114801;28;20131;-71
2022/05/08 06:12:38;;;;;;;14.43;7.53;;;;;;;18.31;46.82;100647.22;5112303;27;20053;-71
2022/05/08 06:15:08;;;;;;;11.07;6.63;;;;;;;18.35;46.48;100645.41;5112505;27;20178;-71
2022/05/08 06:17:37;;;;;;;9.77;5.85;;;;;;;18.24;46.05;100639.22;5111888;28;20047;-71
2022/05/08 06:20:05;;;;;;;9.68;5.82;;;;;;;17.95;45.82;100600.28;5114936;27;20101;-70
2022/05/08 06:22:33;;;;;;;8.52;6.18;;;;;;;18.27;45.95;100638.56;5112326;27;20101;-70
2022/05/08 06:25:00;;;;;;;12.52;6.63;;;;;;;18.42;45.62;100648.56;5112974;27;20086;-71
2022/05/08 06:27:27;;;;;;;15.88;7.38;;;;;;;18.46;45.90;100646.72;5112269;28;20628;-70
2022/05/08 06:29:54;;;;;;;13.77;8.07;;;;;;;18.56;45.68;100642.75;5112132;28;20051;-70
2022/05/08 06:32:21;;;;;;;10.82;6.25;;;;;;;18.54;45.57;100633.78;5113229;28;20517;-71
2022/05/08 06:34:48;;;;;;;11.60;6.82;;;;;;;18.75;45.09;100651.78;5109712;27;20055;-71
2022/05/08 06:37:15;;;;;;;9.35;5.88;;;;;;;18.79;45.33;100635.78;5112581;28;20135;-71
2022/05/08 06:39:42;;;;;;;9.20;6.63;;;;;;;18.97;45.16;100653.56;5113654;27;20127;-70
2022/05/08 06:42:09;;;;;;;10.15;7.32;;;;;;;19.11;45.34;100642.06;5112196;27;20048;-71
2022/05/08 06:44:36;;;;;;;11.70;8.13;;;;;;;19.09;45.66;100616.09;5113624;27;20051;-70
2022/05/08 06:47:04;;;;;;;13.82;8.43;;;;;;;19.29;45.79;100628.72;5112479;28;20126;-70
2022/05/08 06:49:31;;;;;;;15.57;7.75;;;;;;;19.53;46.27;100648.78;5112703;27;20052;-71
2022/05/08 06:51:58;;;;;;;15.52;7.28;;;;;;;19.71;46.08;100648.75;5113669;28;20581;-72
2022/05/08 06:54:26;;;;;;;14.10;8.52;;;;;;;19.88;45.77;100658.00;5112509;27;20117;-71
2022/05/08 06:56:55;;;;;;;17.00;8.88;;;;;;;19.91;45.85;100659.31;5114102;27;20147;-71
2022/05/08 07:02:09;;;;;;;20.55;8.05;;;;;;;19.83;44.85;100624.19;5112462;28;20116;-70
2022/05/08 07:04:36;;;;;;;12.77;7.78;;;;;;;20.21;45.08;100665.81;5112044;28;20097;-66
2022/05/08 07:07:03;;;;;;;16.60;10.40;;;;;;;20.44;44.83;100665.50;5111314;28;20047;-67
2022/05/08 07:09:30;;;;;;;18.15;11.38;;;;;;;20.70;44.72;100654.00;5110355;27;20150;-67
2022/05/08 07:11:57;;;;;;;15.88;9.90;;;;;;;20.90;44.83;100649.47;5110371;28;20126;-67
2022/05/08 07:14:28;;;;;;;17.67;10.13;;;;;;;21.21;44.22;100646.97;5110972;28;20044;-67
2022/05/08 07:16:55;;;;;;;13.93;9.48;;;;;;;21.44;44.18;100650.28;5144987;27;20047;-67
2022/05/08 07:19:22;;;;;;;18.60;9.40;;;;;;;21.52;43.84;100655.03;5111645;28;20066;-67
2022/05/08 07:21:48;;;;;;;16.33;10.93;;;;;;;21.43;44.22;100645.75;5108908;28;20147;-68
2022/05/08 07:24:20;;;;;;;15.02;9.70;;;;;;;21.59;43.77;100662.16;5111619;28;20047;-67
2022/05/08 07:26:47;;;;;;;15.75;8.90;;;;;;;21.69;43.51;100665.34;5106627;27;20460;-67
2022/05/08 07:29:15;;;;;;;15.48;9.98;;;;;;;21.67;43.09;100676.22;5111898;27;20087;-67
2022/05/08 07:31:43;;;;;;;17.70;9.88;;;;;;;21.59;43.47;100665.81;5111185;28;20035;-67
2022/05/08 07:36:56;;;;;;;19.67;11.10;;;;;;;21.52;43.24;100676.94;5110231;28;20079;-67
2022/05/08 07:39:23;;;;;;;18.75;10.20;;;;;;;21.66;43.19;100685.13;5109475;27;20403;-67
2022/05/08 07:41:51;;;;;;;19.83;12.23;;;;;;;22.03;43.01;100702.22;5146452;27;20190;-67
2022/05/08 07:44:19;;;;;;;18.45;11.15;;;;;;;22.39;42.40;100699.41;5111596;27;20040;-67
2022/05/08 07:46:45;;;;;;;20.88;13.13;;;;;;;22.48;42.07;100656.59;5109626;27;20079;-67
2022/05/08 07:49:12;;;;;;;19.88;10.02;;;;;;;23.10;41.50;100680.03;5111165;27;20075;-67
2022/05/08 07:51:39;;;;;;;16.58;9.95;;;;;;;23.73;41.16;100691.59;5110767;28;20131;-67
2022/05/08 07:54:06;;;;;;;16.05;10.15;;;;;;;24.10;40.42;100674.19;5107320;27;20105;-67
2022/05/08 07:56:34;;;;;;;16.05;9.40;;;;;;;24.31;39.90;100669.03;5109610;28;20084;-67
2022/05/08 07:59:01;;;;;;;18.25;10.15;;;;;;;24.76;39.04;100698.22;5112680;28;20055;-68
2022/05/08 08:01:28;;;;;;;14.88;9.07;;;;;;;25.10;39.06;100682.22;5107578;28;20074;-68
2022/05/08 08:04:14;;;;;;;14.75;9.90;;;;;;;25.52;38.06;100684.31;5111915;28;20079;-67
2022/05/08 08:06:42;;;;;;;13.75;9.77;;;;;;;25.46;38.20;100672.34;5106597;28;20139;-67
2022/05/08 08:09:10;;;;;;;12.32;8.70;;;;;;;25.28;37.78;100649.13;5111984;28;20470;-67
2022/05/08 08:11:38;;;;;;;11.10;8.02;;;;;;;25.37;38.08;100662.34;5113035;28;20043;-66
2022/05/08 08:14:05;;;;;;;11.95;8.48;;;;;;;25.49;37.63;100676.50;5115823;27;20059;-67
2022/05/08 08:16:32;;;;;;;13.93;8.32;;;;;;;25.70;37.52;100682.59;5106753;28;20047;-68
2022/05/08 08:19:00;;;;;;;12.00;8.00;;;;;;;25.96;37.24;100672.47;5111028;28;20047;-68
2022/05/08 08:21:27;;;;;;;11.05;6.55;;;;;;;26.29;36.48;100685.25;5137781;27;20492;-67
2022/05/08 08:23:54;;;;;;;10.82;7.18;;;;;;;26.49;36.61;100668.84;5100299;28;20538;-66
2022/05/08 08:26:21;;;;;;;7.72;5.30;;;;;;;26.82;35.72;100685.28;5105048;28;20096;-67
2022/05/08 08:28:48;;;;;;;6.40;4.97;;;;;;;26.96;34.97;100679.72;5109368;28;20047;-67
2022/05/08 08:31:15;;;;;;;8.18;4.97;;;;;;;27.06;34.40;100633.19;5103481;28;20051;-66
2022/05/08 08:33:46;;;;;;;11.02;6.10;;;;;;;27.62;34.05;100677.25;5110095;28;20506;-66
2022/05/08 08:36:12;;;;;;;15.43;6.00;;;;;;;27.48;33.49;100671.38;5106553;28;20080;-68
2022/05/08 08:38:40;;;;;;;12.32;6.47;;;;;;;27.39;33.62;100671.69;5109848;28;20126;-67
2022/05/08 08:41:08;;;;;;;12.75;8.13;;;;;;;27.69;33.42;100691.66;5109980;28;20503;-67
2022/05/08 08:49:22;;;;;;;8.55;5.35;;;;;;;28.86;32.65;100699.63;5105041;28;20414;-67
2022/05/08 08:51:50;;;;;;;11.98;5.78;;;;;;;29.14;31.88;100701.03;5105234;28;20134;-67
2022/05/08 08:54:21;;;;;;;8.10;5.65;;;;;;;29.34;31.67;100687.97;5110723;28;20044;-68
2022/05/08 08:56:49;;;;;;;9.18;5.53;;;;;;;29.63;31.25;100679.44;5118626;28;20209;-67
2022/05/08 08:59:21;;;;;;;7.45;5.10;;;;;;;29.86;30.94;100697.16;5107831;28;20048;-67
2022/05/08 09:01:48;;;;;;;5.35;4.70;;;;;;;29.81;30.81;100688.91;5108857;28;20044;-67
2022/05/08 09:04:18;;;;;;;8.45;5.45;;;;;;;29.86;30.65;100705.78;5111220;28;20051;-67
2022/05/08 09:06:46;;;;;;;8.43;5.43;;;;;;;30.16;30.66;100701.72;5110986;28;20142;-67
2022/05/08 09:09:27;;;;;;;12.30;6.75;;;;;;;30.44;30.79;100706.66;5112504;28;20087;-67
2022/05/08 09:11:56;;;;;;;8.02;6.07;;;;;;;30.57;30.04;100707.88;5112428;28;20490;-68
2022/05/08 09:14:35;;;;;;;10.57;6.40;;;;;;;30.73;30.64;100701.66;5111848;28;20046;-68
2022/05/08 09:17:06;;;;;;;10.82;6.75;;;;;;;30.83;30.27;100700.84;5111386;28;20615;-67
2022/05/08 09:19:40;;;;;;;12.63;7.10;;;;;;;30.97;30.17;100696.25;5111074;28;20520;-67
2022/05/08 09:22:11;;;;;;;10.52;7.18;;;;;;;30.72;30.03;100676.13;5097508;28;20101;-68
2022/05/08 09:24:52;;;;;;;16.33;7.10;;;;;;;30.84;29.42;100693.03;5112797;28;20465;-67
2022/05/08 09:27:19;;;;;;;11.20;7.68;;;;;;;30.78;29.40;100698.38;5111254;28;20047;-67
2022/05/08 09:29:47;;;;;;;11.35;6.93;;;;;;;30.72;29.39;100700.00;5112582;28;20074;-68
2022/05/08 09:32:35;;;;;;;9.30;6.15;;;;;;;30.90;29.53;100692.16;5114914;28;20050;-69
2022/05/08 09:35:03;;;;;;;8.95;5.75;;;;;;;31.18;29.20;100701.97;5114471;28;20047;-67
2022/05/08 09:37:31;;;;;;;9.07;6.50;;;;;;;31.07;29.09;100652.97;5114714;28;20055;-67
2022/05/08 09:40:17;;;;;;;11.02;6.25;;;;;;;31.49;29.11;100699.34;5113222;28;20073;-67
2022/05/08 09:42:45;;;;;;;9.15;6.22;;;;;;;31.56;28.44;100677.06;5114941;28;20056;-67
2022/05/08 09:45:12;;;;;;;7.35;5.55;;;;;;;31.98;28.65;100697.44;5113703;28;20134;-68
2022/05/08 09:47:49;;;;;;;11.43;6.03;;;;;;;32.17;28.47;100672.91;5115554;28;20127;-67
2022/05/08 09:50:18;;;;;;;11.68;6.28;;;;;;;32.54;28.23;100686.63;5112703;28;20098;-67
2022/05/08 09:52:45;;;;;;;10.07;6.43;;;;;;;32.76;27.80;100682.25;5115561;27;20054;-67
2022/05/08 09:55:13;;;;;;;9.02;5.85;;;;;;;33.00;27.60;100691.13;5111564;28;20083;-67
2022/05/08 09:57:41;;;;;;;11.25;6.13;;;;;;;33.15;27.54;100695.47;5109192;28;20605;-66
2022/05/08 10:00:13;;;;;;;9.60;6.28;;;;;;;33.26;27.55;100690.34;5114653;28;20054;-68
2022/05/08 10:02:43;;;;;;;9.65;6.38;;;;;;;33.38;27.42;100686.06;5115315;28;20375;-68
2022/05/08 10:05:10;;;;;;;8.32;6.25;;;;;;;33.55;26.93;100686.28;5114680;28;20040;-68
2022/05/08 10:07:39;;;;;;;14.38;6.75;;;;;;;33.49;27.16;100654.91;5115587;28;20052;-68
2022/05/08 10:15:43;;;;;;;9.32;6.22;;;;;;;33.92;26.63;100679.53;5112949;28;20075;-68
2022/05/08 10:18:31;;;;;;;14.32;6.72;;;;;;;34.00;26.65;100671.53;5113838;28;20051;-68
2022/05/08 10:21:12;;;;;;;10.82;6.95;;;;;;;34.00;26.72;100672.38;5108426;28;20043;-68
2022/05/08 10:23:41;;;;;;;9.52;5.88;;;;;;;33.85;26.61;100680.44;5114571;28;20463;-67
2022/05/08 10:26:17;;;;;;;;;;;;;;;33.57;27.88;100673.00;5115153;28;20098;-68
2022/05/08 10:29:02;;;;;;;8.27;5.75;;;;;;;33.77;27.38;100681.81;5114678;27;20019;-67
2022/05/08 10:31:48;;;;;;;7.78;5.30;;;;;;;33.96;26.80;100677.38;5100146;28;20040;-67
2022/05/08 10:34:16;;;;;;;12.82;6.45;;;;;;;34.14;26.49;100689.50;5094293;28;20083;-66
2022/05/08 10:37:22;;;;;;;8.75;5.50;;;;;;;34.16;26.49;100681.22;5109083;28;20475;-67
2022/05/08 10:39:51;;;;;;;9.25;6.28;;;;;;;34.26;26.19;100676.50;5113947;28;20067;-68
2022/05/08 10:42:23;;;;;;;;;;;;;;;34.28;27.13;100671.06;5114364;28;20079;-66
2022/05/08 10:44:51;;;;;;;6.47;5.30;;;;;;;34.61;26.06;100660.53;5114076;28;19919;-67
2022/05/08 10:47:43;;;;;;;8.82;5.57;;;;;;;34.80;25.82;100661.00;5110664;28;20059;-67
2022/05/08 10:50:13;;;;;;;9.65;5.63;;;;;;;34.79;25.46;100668.88;5094077;28;20135;-68
2022/05/08 10:52:45;;;;;;;11.23;4.53;;;;;;;34.86;24.72;100657.13;5112628;28;20128;-68
2022/05/08 10:55:16;;;;;;;5.97;4.15;;;;;;;34.97;24.31;100658.97;5147318;27;20044;-68
2022/05/08 10:57:45;;;;;;;6.60;4.13;;;;;;;35.14;24.25;100652.00;5113646;28;20553;-68
2022/05/08 11:00:27;;;;;;;7.50;3.67;;;;;;;35.00;23.90;100617.47;5113514;28;20089;-68
2022/05/08 11:03:00;;;;;;;6.35;3.80;;;;;;;35.34;23.25;100666.50;5112767;28;20073;-68
2022/05/08 11:05:32;;;;;;;9.88;4.47;;;;;;;35.21;23.22;100648.94;5114126;28;20083;-68
2022/05/08 11:08:01;;;;;;;5.20;3.53;;;;;;;35.18;23.17;100646.13;5113111;28;20509;-68
2022/05/08 11:10:40;;;;;;;9.07;4.07;;;;;;;35.31;22.76;100652.88;5113528;28;20055;-68
2022/05/08 11:13:19;;;;;;;6.88;3.85;;;;;;;35.31;23.02;100635.47;5114080;27;20135;-67
2022/05/08 11:15:48;;;;;;;6.88;4.07;;;;;;;35.09;22.66;100614.81;5112263;28;20082;-68
2022/05/08 11:18:26;;;;;;;7.88;4.97;;;;;;;35.19;23.18;100647.78;5113117;28;20055;-67
2022/05/08 11:21:02;;;;;;;7.13;4.03;;;;;;;35.27;23.25;100649.25;5112645;28;20059;-68
2022/05/08 11:23:32;;;;;;;6.60;4.28;;;;;;;35.30;23.49;100616.41;5110647;28;20116;-67
2022/05/08 11:26:00;;;;;;;10.18;5.78;;;;;;;35.57;23.57;100646.09;5106365;28;20550;-68
2022/05/08 11:28:29;;;;;;;11.03;8.00;;;;;;;35.65;24.11;100634.28;5106724;27;20089;-67
2022/05/08 11:30:56;;;;;;;;;;;;;;;35.25;24.82;100640.16;5102711;27;20138;-67
2022/05/08 11:36:34;;;;;;;20.80;12.55;;;;;;;35.30;24.24;100608.53;5104060;28;20143;-67
2022/05/08 11:39:04;;;;;;;21.08;12.82;;;;;;;35.51;23.88;100630.47;5099631;28;20069;-68
2022/05/08 11:41:47;;;;;;;18.88;11.50;;;;;;;35.27;24.61;100623.13;5110918;28;20138;-68
2022/05/08 11:44:16;;;;;;;19.77;11.75;;;;;;;35.20;24.74;100643.59;5093185;28;20075;-68
2022/05/08 11:46:46;;;;;;;21.60;12.65;;;;;;;35.13;24.58;100645.41;5110929;28;20137;-67
2022/05/08 11:49:19;;;;;;;17.60;11.60;;;;;;;35.13;24.76;100633.78;5113273;28;20142;-67
2022/05/08 11:52:00;;;;;;;18.63;12.57;;;;;;;35.26;24.75;100636.81;5112338;28;20039;-67
2022/05/08 11:54:35;;;;;;;16.65;12.68;;;;;;;35.37;24.45;100608.34;5110181;28;20047;-66
2022/05/08 11:57:16;;;;;;;18.50;12.52;;;;;;;35.71;24.65;100632.50;5098676;28;20106;-68
2022/05/08 11:59:45;;;;;;;18.13;12.27;;;;;;;35.90;23.52;100634.50;5109744;27;20054;-68